createdAt,value
2022-09-16T00:01:42.646Z,1.40
2022-09-16T00:04:12.018Z,2.00
2022-09-16T00:06:40.799Z,1.50
2022-09-16T00:09:11.818Z,1.88
2022-09-16T00:11:39.856Z,1.70
2022-09-16T00:14:08.218Z,1.42
2022-09-16T00:16:36.616Z,1.52
2022-09-16T00:19:04.956Z,2.25
2022-09-16T00:21:33.340Z,2.20
2022-09-16T00:24:02.018Z,1.77
2022-09-16T00:26:31.466Z,2.58
2022-09-16T00:28:59.962Z,2.17
2022-09-16T00:31:28.307Z,1.70
2022-09-16T00:33:57.772Z,2.17
2022-09-16T00:36:25.851Z,1.75
2022-09-16T00:38:55.379Z,2.10
2022-09-16T00:41:25.453Z,1.60
2022-09-16T00:43:58.151Z,2.28
2022-09-16T00:46:33.726Z,2.63
2022-09-16T00:49:05.164Z,2.00
2022-09-16T00:51:33.939Z,2.20
2022-09-16T00:54:04.258Z,2.30
2022-09-16T00:56:36.043Z,2.15
2022-09-16T00:59:08.667Z,2.40
2022-09-16T01:01:37.244Z,2.22
2022-09-16T01:04:09.786Z,2.75
2022-09-16T01:06:40.047Z,2.60
2022-09-16T01:09:08.732Z,2.50
2022-09-16T01:11:38.320Z,3.15
2022-09-16T01:14:25.861Z,2.47
2022-09-16T01:16:59.349Z,2.42
2022-09-16T01:19:44.181Z,3.45
2022-09-16T01:22:22.463Z,2.47
2022-09-16T01:24:54.341Z,2.42
2022-09-16T01:27:34.064Z,2.20
2022-09-16T01:30:16.612Z,2.78
2022-09-16T01:35:24.570Z,2.83
2022-09-16T01:37:58.657Z,3.05
2022-09-16T01:40:32.681Z,2.60
2022-09-16T01:43:05.224Z,2.65
2022-09-16T01:45:37.774Z,3.38
2022-09-16T01:48:10.782Z,3.03
2022-09-16T01:50:44.745Z,2.83
2022-09-16T01:53:16.466Z,2.55
2022-09-16T01:55:50.314Z,3.13
2022-09-16T01:58:22.854Z,2.70
2022-09-16T02:00:53.745Z,3.55
2022-09-16T02:03:25.960Z,2.80
2022-09-16T02:05:57.498Z,3.58
2022-09-16T02:08:29.164Z,3.20
2022-09-16T02:11:01.001Z,2.85
2022-09-16T02:13:31.713Z,3.55
2022-09-16T02:16:03.380Z,4.13
2022-09-16T02:18:37.843Z,3.22
2022-09-16T02:21:08.458Z,2.85
2022-09-16T02:23:39.976Z,4.10
2022-09-16T02:26:11.561Z,3.23
2022-09-16T02:28:42.788Z,3.53
2022-09-16T02:31:12.330Z,3.60
2022-09-16T02:33:46.490Z,3.85
2022-09-16T02:36:17.538Z,3.60
2022-09-16T02:38:47.721Z,3.58
2022-09-16T02:41:15.974Z,3.65
2022-09-16T02:43:45.255Z,3.83
2022-09-16T02:46:20.784Z,5.28
2022-09-16T02:48:57.398Z,3.50
2022-09-16T02:51:32.996Z,3.80
2022-09-16T02:54:03.896Z,3.42
2022-09-16T02:56:34.102Z,3.95
2022-09-16T02:59:02.812Z,4.93
2022-09-16T03:01:34.136Z,3.78
2022-09-16T03:04:04.617Z,4.50
2022-09-16T03:06:36.131Z,4.05
2022-09-16T03:09:06.828Z,4.43
2022-09-16T03:11:54.719Z,3.47
2022-09-16T03:14:38.857Z,4.10
2022-09-16T03:17:18.234Z,3.75
2022-09-16T03:19:58.082Z,4.05
2022-09-16T03:22:33.336Z,3.90
2022-09-16T03:25:07.702Z,4.18
2022-09-16T03:27:38.843Z,3.60
2022-09-16T03:30:10.439Z,4.00
2022-09-16T03:32:42.638Z,4.07
2022-09-16T03:35:17.708Z,4.63
2022-09-16T03:37:46.630Z,4.32
2022-09-16T03:40:17.094Z,4.07
2022-09-16T03:42:45.811Z,4.25
2022-09-16T03:45:15.896Z,4.07
2022-09-16T03:47:44.780Z,3.83
2022-09-16T03:50:16.037Z,3.50
2022-09-16T03:52:44.719Z,3.92
2022-09-16T03:55:13.587Z,3.80
2022-09-16T03:57:43.031Z,3.70
2022-09-16T04:00:12.282Z,4.22
2022-09-16T04:02:41.018Z,3.60
2022-09-16T04:05:10.380Z,3.20
2022-09-16T04:07:40.263Z,3.40
2022-09-16T04:10:09.194Z,3.67
2022-09-16T04:12:38.505Z,4.10
2022-09-16T04:15:07.476Z,3.80
2022-09-16T04:17:35.871Z,4.07
2022-09-16T04:20:05.175Z,3.67
2022-09-16T04:22:33.740Z,3.28
2022-09-16T04:25:05.295Z,3.78
2022-09-16T04:27:33.318Z,3.83
2022-09-16T04:30:01.681Z,3.25
2022-09-16T04:32:30.213Z,3.75
2022-09-16T04:34:58.825Z,3.63
2022-09-16T04:37:31.408Z,4.40
2022-09-16T04:40:07.277Z,4.60
2022-09-16T04:42:35.926Z,3.38
2022-09-16T04:45:06.258Z,4.10
2022-09-16T04:47:34.376Z,3.40
2022-09-16T04:50:02.584Z,3.58
2022-09-16T04:52:31.685Z,3.10
2022-09-16T04:55:00.188Z,3.30
2022-09-16T04:57:33.787Z,3.58
2022-09-16T05:00:02.662Z,2.88
2022-09-16T05:02:31.284Z,3.55
2022-09-16T05:04:59.533Z,3.35
2022-09-16T05:07:30.167Z,3.50
2022-09-16T05:09:58.661Z,3.45
2022-09-16T05:12:26.857Z,3.38
2022-09-16T05:14:56.586Z,2.25
2022-09-16T05:17:49.340Z,3.20
2022-09-16T05:20:14.248Z,3.83
2022-09-16T05:22:42.591Z,2.28
2022-09-16T05:25:11.226Z,2.45
2022-09-16T05:27:39.865Z,2.50
2022-09-16T05:30:11.931Z,2.30
2022-09-16T05:32:40.419Z,2.30
2022-09-16T05:35:10.669Z,2.65
2022-09-16T05:37:39.458Z,2.15
2022-09-16T05:40:10.215Z,2.10
2022-09-16T05:42:39.625Z,1.75
2022-09-16T05:45:10.547Z,1.60
2022-09-16T05:47:39.240Z,1.98
2022-09-16T05:50:09.142Z,2.28
2022-09-16T05:52:37.594Z,1.70
2022-09-16T05:55:06.764Z,1.75
2022-09-16T05:57:35.154Z,1.50
2022-09-16T06:00:04.690Z,1.80
2022-09-16T06:02:34.902Z,1.90
2022-09-16T06:05:03.100Z,1.83
2022-09-16T06:07:31.363Z,1.55
2022-09-16T06:10:01.642Z,2.40
2022-09-16T06:12:29.806Z,1.80
2022-09-16T06:14:57.837Z,2.53
2022-09-16T06:17:26.775Z,2.25
2022-09-16T06:19:57.147Z,2.83
2022-09-16T06:22:28.096Z,2.00
2022-09-16T06:24:56.534Z,2.28
2022-09-16T06:27:24.749Z,2.53
2022-09-16T06:29:54.931Z,2.33
2022-09-16T06:32:23.558Z,1.95
2022-09-16T06:34:56.981Z,2.45
2022-09-16T06:37:32.390Z,3.17
2022-09-16T06:40:02.518Z,2.55
2022-09-16T06:42:31.038Z,1.85
2022-09-16T06:45:04.487Z,2.00
2022-09-16T06:47:34.201Z,1.90
2022-09-16T06:50:02.978Z,2.55
2022-09-16T06:52:40.538Z,2.20
2022-09-16T06:55:09.792Z,1.75
2022-09-16T06:57:38.404Z,2.35
2022-09-16T07:00:09.263Z,2.47
2022-09-16T07:02:38.232Z,1.73
2022-09-16T07:05:07.404Z,1.80
2022-09-16T07:07:39.513Z,1.95
2022-09-16T07:10:08.531Z,1.60
2022-09-16T07:12:36.591Z,1.73
2022-09-16T07:15:05.660Z,2.13
2022-09-16T07:17:34.429Z,2.28
2022-09-16T07:20:06.209Z,1.80
2022-09-16T07:22:35.246Z,1.67
2022-09-16T07:25:05.507Z,1.75
2022-09-16T07:27:34.702Z,1.55
2022-09-16T07:30:08.190Z,1.73
2022-09-16T07:32:38.617Z,1.67
2022-09-16T07:35:09.336Z,2.15
2022-09-16T07:37:42.544Z,2.10
2022-09-16T07:40:29.055Z,1.55
2022-09-16T07:42:58.998Z,2.38
2022-09-16T07:45:31.516Z,2.00
2022-09-16T07:47:59.772Z,1.80
2022-09-16T07:50:27.817Z,2.30
2022-09-16T07:52:58.523Z,2.75
2022-09-16T07:55:29.205Z,2.10
2022-09-16T07:57:57.599Z,1.98
2022-09-16T08:00:28.944Z,1.50
2022-09-16T08:02:58.304Z,2.55
2022-09-16T08:05:26.953Z,2.05
2022-09-16T08:07:56.591Z,2.40
2022-09-16T08:10:27.231Z,2.30
2022-09-16T08:12:58.885Z,1.65
2022-09-16T08:15:29.712Z,2.25
2022-09-16T08:17:58.166Z,2.15
2022-09-16T08:20:27.265Z,2.53
2022-09-16T08:22:58.186Z,1.60
2022-09-16T08:25:28.650Z,2.15
2022-09-16T08:28:10.303Z,1.90
2022-09-16T08:30:41.013Z,2.15
2022-09-16T08:33:14.647Z,1.52
2022-09-16T08:35:42.825Z,1.73
2022-09-16T08:38:14.688Z,1.65
2022-09-16T08:40:46.130Z,1.77
2022-09-16T08:43:20.720Z,1.47
2022-09-16T08:45:53.707Z,1.33
2022-09-16T08:48:29.552Z,0.95
2022-09-16T08:50:59.175Z,1.63
2022-09-16T08:53:36.555Z,1.70
2022-09-16T08:56:07.115Z,1.58
2022-09-16T08:58:39.820Z,1.20
2022-09-16T09:01:17.687Z,1.58
2022-09-16T09:03:48.107Z,1.52
2022-09-16T09:06:31.872Z,1.52
2022-09-16T09:09:08.460Z,1.85
2022-09-16T09:11:42.054Z,1.50
2022-09-16T09:14:34.054Z,1.77
2022-09-16T09:17:09.770Z,1.70
2022-09-16T09:19:53.927Z,2.17
2022-09-16T09:22:31.499Z,1.85
2022-09-16T09:25:19.372Z,1.30
2022-09-16T09:27:55.624Z,1.85
2022-09-16T09:30:33.780Z,1.63
2022-09-16T09:33:41.627Z,1.75
2022-09-16T09:36:31.784Z,1.38
2022-09-16T09:39:20.616Z,1.83
2022-09-16T09:41:52.950Z,1.80
2022-09-16T09:44:58.479Z,1.40
2022-09-16T09:47:34.237Z,1.52
2022-09-16T09:50:16.913Z,1.30
2022-09-16T09:52:49.763Z,1.40
2022-09-16T09:55:20.662Z,1.88
2022-09-16T09:58:03.312Z,1.33
2022-09-16T10:00:36.780Z,1.20
2022-09-16T10:03:19.599Z,1.25
2022-09-16T10:06:02.350Z,1.60
2022-09-16T10:08:41.430Z,1.23
2022-09-16T10:11:36.680Z,1.40
2022-09-16T10:14:05.824Z,1.40
2022-09-16T10:16:37.998Z,1.27
2022-09-16T10:19:17.235Z,1.97
2022-09-16T10:21:51.437Z,1.63
2022-09-16T10:24:32.086Z,1.50
2022-09-16T10:27:03.946Z,1.60
2022-09-16T10:29:33.014Z,1.52
2022-09-16T10:32:05.600Z,1.50
2022-09-16T10:34:43.235Z,1.13
2022-09-16T10:37:17.307Z,1.10
2022-09-16T10:39:50.223Z,1.63
2022-09-16T10:42:20.930Z,1.50
2022-09-16T10:44:54.689Z,1.50
2022-09-16T10:47:27.245Z,1.02
2022-09-16T10:50:02.443Z,0.93
2022-09-16T10:52:32.016Z,1.00
2022-09-16T10:55:11.879Z,1.58
2022-09-16T10:57:43.259Z,1.02
2022-09-16T11:00:14.899Z,1.52
2022-09-16T11:03:18.369Z,1.20
2022-09-16T11:05:57.808Z,1.33
2022-09-16T11:08:39.427Z,1.08
2022-09-16T11:11:13.281Z,1.23
2022-09-16T11:13:47.073Z,1.75
2022-09-16T11:16:33.694Z,1.15
2022-09-16T11:19:07.880Z,1.30
2022-09-16T11:22:01.436Z,1.00
2022-09-16T11:24:47.388Z,1.10
2022-09-16T11:27:27.905Z,1.27
2022-09-16T11:30:08.315Z,1.00
2022-09-16T11:33:01.152Z,0.88
2022-09-16T11:35:57.977Z,0.90
2022-09-16T11:38:42.346Z,1.08
2022-09-16T11:41:17.681Z,0.90
2022-09-16T11:44:02.609Z,1.30
2022-09-16T11:46:39.526Z,1.52
2022-09-16T11:49:24.014Z,1.10
2022-09-16T11:52:04.949Z,0.98
2022-09-16T11:55:01.188Z,1.10
2022-09-16T11:57:35.321Z,0.95
2022-09-16T12:00:07.471Z,1.40
2022-09-16T12:02:39.742Z,1.33
2022-09-16T12:07:40.259Z,1.45
2022-09-16T12:10:15.676Z,1.00
2022-09-16T12:12:46.315Z,1.30
2022-09-16T12:15:19.536Z,1.30
2022-09-16T12:17:54.218Z,0.80
2022-09-16T12:20:33.418Z,1.05
2022-09-16T12:23:06.150Z,1.27
2022-09-16T12:25:46.008Z,1.23
2022-09-16T12:28:18.854Z,0.95
2022-09-16T12:30:51.262Z,1.00
2022-09-16T12:33:24.116Z,1.35
2022-09-16T12:35:59.614Z,1.25
2022-09-16T12:38:28.452Z,1.45
2022-09-16T12:41:13.135Z,1.40
2022-09-16T12:44:02.269Z,1.00
2022-09-16T12:46:50.828Z,1.30
2022-09-16T12:49:58.928Z,1.02
2022-09-16T12:55:47.789Z,1.50
2022-09-16T12:58:41.464Z,1.17
2022-09-16T13:01:21.123Z,1.13
2022-09-16T13:03:53.059Z,1.00
2022-09-16T13:06:27.204Z,1.20
2022-09-16T13:08:56.832Z,1.02
2022-09-16T13:14:22.330Z,0.73
2022-09-16T13:16:58.419Z,1.25
2022-09-16T13:19:44.489Z,1.13
2022-09-16T13:22:23.510Z,1.30
2022-09-16T13:24:59.410Z,1.35
2022-09-16T13:27:35.837Z,1.05
2022-09-16T13:30:31.745Z,1.25
2022-09-16T13:33:04.380Z,1.27
2022-09-16T13:35:41.006Z,0.95
2022-09-16T13:38:22.890Z,1.23
2022-09-16T13:40:56.076Z,0.80
2022-09-16T13:43:33.074Z,0.95
2022-09-16T13:46:10.985Z,1.30
2022-09-16T13:48:45.207Z,1.40
2022-09-16T13:51:19.151Z,1.08
2022-09-16T13:53:49.527Z,0.90
2022-09-16T13:56:33.863Z,1.17
2022-09-16T13:59:11.915Z,1.10
2022-09-16T14:01:59.494Z,1.10
2022-09-16T14:04:47.031Z,1.15
2022-09-16T14:07:24.467Z,0.73
2022-09-16T14:10:00.152Z,1.20
2022-09-16T14:12:36.629Z,0.65
2022-09-16T14:15:05.721Z,0.73
2022-09-16T14:17:40.097Z,1.00
2022-09-16T14:20:17.350Z,1.00
2022-09-16T14:22:46.297Z,1.58
2022-09-16T14:25:30.009Z,1.20
2022-09-16T14:28:20.562Z,0.90
2022-09-16T14:30:51.478Z,0.98
2022-09-16T14:33:27.336Z,1.08
2022-09-16T14:35:57.663Z,1.17
2022-09-16T14:38:44.974Z,0.95
2022-09-16T14:41:21.475Z,1.33
2022-09-16T14:43:49.923Z,1.00
2022-09-16T14:46:18.491Z,1.17
2022-09-16T14:48:49.653Z,1.10
2022-09-16T14:51:23.046Z,1.02
2022-09-16T14:54:11.709Z,1.20
2022-09-16T14:56:40.643Z,0.93
2022-09-16T14:59:11.636Z,0.90
2022-09-16T15:01:40.636Z,1.40
2022-09-16T15:04:15.683Z,1.02
2022-09-16T15:06:48.876Z,1.00
2022-09-16T15:09:21.499Z,1.00
2022-09-16T15:11:52.137Z,1.13
2022-09-16T15:14:21.518Z,1.30
2022-09-16T15:16:51.060Z,1.35
2022-09-16T15:19:23.398Z,0.80
2022-09-16T15:24:23.108Z,0.80
2022-09-16T15:26:51.581Z,1.25
2022-09-16T15:29:32.049Z,0.80
2022-09-16T15:32:18.177Z,0.80
2022-09-16T15:34:49.691Z,1.08
2022-09-16T15:37:32.321Z,1.17
2022-09-16T15:40:22.057Z,0.90
2022-09-16T15:43:02.817Z,1.35
2022-09-16T15:45:31.062Z,1.33
2022-09-16T15:48:01.883Z,1.13
2022-09-16T15:50:39.765Z,1.13
2022-09-16T15:53:10.318Z,1.10
2022-09-16T15:55:43.044Z,1.13
2022-09-16T15:58:14.759Z,1.80
2022-09-16T16:01:01.379Z,1.33
2022-09-16T16:03:32.383Z,1.10
2022-09-16T16:06:04.966Z,1.60
2022-09-16T16:08:42.338Z,0.98
2022-09-16T16:11:12.403Z,1.27
2022-09-16T16:13:40.829Z,1.92
2022-09-16T16:16:09.950Z,1.38
2022-09-16T16:18:38.916Z,1.45
2022-09-16T16:21:10.750Z,1.20
2022-09-16T16:23:39.073Z,1.35
2022-09-16T16:26:09.052Z,1.27
2022-09-16T16:28:38.718Z,1.33
2022-09-16T16:31:11.960Z,1.15
2022-09-16T16:33:44.662Z,1.50
2022-09-16T16:36:17.134Z,1.42
2022-09-16T16:38:46.479Z,1.75
2022-09-16T16:41:20.817Z,0.93
2022-09-16T16:43:49.326Z,1.40
2022-09-16T16:46:18.209Z,1.20
2022-09-16T16:48:46.471Z,1.10
2022-09-16T16:51:16.313Z,1.00
2022-09-16T16:53:48.615Z,1.13
2022-09-16T16:58:46.047Z,1.30
2022-09-16T17:01:16.444Z,1.80
2022-09-16T17:03:46.510Z,1.10
2022-09-16T17:06:16.468Z,2.10
2022-09-16T17:08:44.772Z,1.40
2022-09-16T17:11:14.266Z,1.17
2022-09-16T17:13:44.485Z,1.40
2022-09-16T17:16:15.104Z,1.88
2022-09-16T17:18:44.350Z,1.15
2022-09-16T17:21:15.026Z,0.95
2022-09-16T17:23:44.646Z,1.27
2022-09-16T17:26:13.965Z,1.30
2022-09-16T17:28:44.710Z,1.48
2022-09-16T17:31:14.341Z,0.85
2022-09-16T17:33:42.386Z,1.20
2022-09-16T17:36:11.581Z,2.05
2022-09-16T17:38:39.919Z,2.00
2022-09-16T17:41:11.257Z,1.20
2022-09-16T17:43:40.184Z,1.42
2022-09-16T17:46:11.898Z,1.63
2022-09-16T17:48:40.397Z,1.48
2022-09-16T17:51:09.416Z,1.60
2022-09-16T17:53:38.203Z,1.20
2022-09-16T17:56:08.400Z,1.15
2022-09-16T17:58:39.799Z,1.15
2022-09-16T18:01:09.061Z,1.30
2022-09-16T18:03:38.057Z,1.02
2022-09-16T18:06:08.598Z,1.10
2022-09-16T18:08:37.378Z,2.28
2022-09-16T18:11:06.496Z,1.25
2022-09-16T18:13:35.007Z,2.00
2022-09-16T18:16:07.188Z,1.98
2022-09-16T18:18:36.708Z,1.20
2022-09-16T18:21:06.439Z,1.38
2022-09-16T18:23:35.848Z,1.70
2022-09-16T18:26:06.039Z,1.40
2022-09-16T18:28:58.087Z,1.45
2022-09-16T18:31:27.262Z,1.40
2022-09-16T18:33:59.571Z,1.42
2022-09-16T18:36:30.576Z,1.55
2022-09-16T18:39:00.678Z,1.65
2022-09-16T18:41:30.067Z,1.38
2022-09-16T18:44:01.584Z,1.48
2022-09-16T18:46:32.393Z,1.60
2022-09-16T18:49:03.001Z,1.38
2022-09-16T18:51:32.970Z,1.42
2022-09-16T18:54:02.341Z,1.67
2022-09-16T18:56:32.581Z,1.50
2022-09-16T18:59:21.610Z,2.30
2022-09-16T19:01:52.976Z,1.67
2022-09-16T19:04:23.148Z,1.63
2022-09-16T19:06:53.250Z,1.10
2022-09-16T19:09:23.523Z,1.25
2022-09-16T19:11:52.834Z,1.33
2022-09-16T19:14:24.487Z,1.52
2022-09-16T19:16:54.571Z,1.58
2022-09-16T19:19:24.199Z,1.10
2022-09-16T19:21:53.965Z,1.30
2022-09-16T19:24:25.374Z,1.73
2022-09-16T19:26:55.303Z,0.95
2022-09-16T19:29:23.732Z,1.65
2022-09-16T19:31:54.673Z,1.67
2022-09-16T19:34:24.425Z,2.20
2022-09-16T19:36:52.863Z,2.22
2022-09-16T19:39:21.458Z,2.38
2022-09-16T19:41:49.815Z,2.33
2022-09-16T19:44:19.730Z,2.05
2022-09-16T19:46:49.631Z,2.50
2022-09-16T19:49:25.013Z,2.00
2022-09-16T19:51:55.106Z,2.00
2022-09-16T19:54:24.776Z,2.40
2022-09-16T19:56:53.023Z,2.05
2022-09-16T19:59:22.427Z,1.48
2022-09-16T20:01:51.112Z,2.17
2022-09-16T20:04:21.257Z,1.80
2022-09-16T20:06:50.339Z,1.70
2022-09-16T20:09:19.812Z,3.85
2022-09-16T20:11:50.760Z,2.47
2022-09-16T20:14:21.414Z,2.25
2022-09-16T20:16:51.095Z,2.80
2022-09-16T20:19:21.686Z,2.75
2022-09-16T20:21:50.510Z,2.85
2022-09-16T20:24:21.019Z,2.35
2022-09-16T20:26:49.934Z,2.35
2022-09-16T20:29:18.702Z,2.28
2022-09-16T20:31:48.042Z,1.92
2022-09-16T20:34:16.622Z,1.85
2022-09-16T20:36:46.755Z,1.83
2022-09-16T20:39:15.906Z,2.30
2022-09-16T20:41:45.713Z,1.75
2022-09-16T20:44:14.992Z,2.10
2022-09-16T20:46:43.833Z,1.80
2022-09-16T20:49:18.519Z,1.95
2022-09-16T20:51:48.098Z,1.52
2022-09-16T20:54:18.038Z,1.77
2022-09-16T20:56:47.885Z,2.47
2022-09-16T20:59:17.621Z,2.42
2022-09-16T21:01:46.515Z,1.50
2022-09-16T21:04:16.106Z,2.38
2022-09-16T21:06:47.457Z,2.83
2022-09-16T21:09:19.654Z,2.67
2022-09-16T21:11:48.304Z,2.45
2022-09-16T21:14:18.101Z,1.80
2022-09-16T21:16:46.979Z,2.22
2022-09-16T21:19:15.469Z,2.05
2022-09-16T21:21:45.839Z,2.13
2022-09-16T21:24:14.689Z,1.70
2022-09-16T21:26:46.346Z,2.30
2022-09-16T21:29:19.250Z,1.60
2022-09-16T21:31:48.533Z,1.75
2022-09-16T21:34:19.545Z,1.73
2022-09-16T21:36:48.191Z,1.98
2022-09-16T21:39:18.804Z,3.28
2022-09-16T21:41:49.650Z,1.80
2022-09-16T21:44:18.524Z,1.63
2022-09-16T21:46:47.487Z,1.77
2022-09-16T21:49:24.503Z,1.60
2022-09-16T21:51:53.614Z,1.50
2022-09-16T21:54:23.172Z,1.83
2022-09-16T21:56:53.730Z,1.73
2022-09-16T21:59:22.346Z,1.55
2022-09-16T22:01:51.614Z,1.67
2022-09-16T22:04:21.196Z,1.52
2022-09-16T22:06:50.338Z,1.25
2022-09-16T22:09:18.716Z,2.08
2022-09-16T22:11:47.694Z,2.85
2022-09-16T22:14:17.885Z,1.90
2022-09-16T22:16:47.212Z,1.77
2022-09-16T22:19:17.238Z,2.28
2022-09-16T22:21:47.367Z,1.73
2022-09-16T22:24:20.139Z,1.95
2022-09-16T22:26:50.769Z,2.15
2022-09-16T22:29:20.465Z,2.47
2022-09-16T22:31:49.087Z,2.75
2022-09-16T22:34:17.948Z,2.05
2022-09-16T22:36:46.776Z,1.77
2022-09-16T22:39:17.231Z,1.80
2022-09-16T22:41:45.771Z,1.80
2022-09-16T22:44:14.252Z,1.73
2022-09-16T22:46:45.417Z,1.50
2022-09-16T22:49:13.959Z,1.73
2022-09-16T22:51:42.450Z,1.70
2022-09-16T22:54:12.773Z,1.73
2022-09-16T22:56:43.180Z,2.22
2022-09-16T22:59:17.241Z,1.75
2022-09-16T23:01:47.314Z,2.88
2022-09-16T23:04:16.138Z,2.05
2022-09-16T23:06:45.367Z,1.92
2022-09-16T23:09:14.017Z,2.20
2022-09-16T23:11:42.803Z,1.80
2022-09-16T23:14:14.569Z,2.13
2022-09-16T23:16:42.910Z,2.22
2022-09-16T23:19:13.347Z,3.28
2022-09-16T23:21:42.175Z,2.55
2022-09-16T23:24:14.927Z,2.10
2022-09-16T23:26:43.732Z,1.80
2022-09-16T23:29:13.276Z,3.13
2022-09-16T23:31:43.542Z,2.47
2022-09-16T23:34:15.938Z,2.00
2022-09-16T23:39:15.388Z,1.60
2022-09-16T23:41:44.290Z,2.35
2022-09-16T23:44:14.400Z,2.25
2022-09-16T23:46:42.876Z,2.10
2022-09-16T23:49:17.104Z,1.92
2022-09-16T23:51:45.473Z,1.95
2022-09-16T23:54:14.308Z,1.80
2022-09-16T23:56:43.613Z,2.40
2022-09-16T23:59:12.081Z,2.15
